sensor_id;sensor_type;location;lat;lon;timestamp;temperature;humidity
13817;DHT22;6979;52.116;5.286;2024-02-15T00:02:16;16.20;99.90
13817;DHT22;6979;52.116;5.286;2024-02-15T00:04:46;16.20;99.90
13817;DHT22;6979;52.116;5.286;2024-02-15T00:07:13;16.20;99.90
13817;DHT22;6979;52.116;5.286;2024-02-15T00:09:40;16.20;99.90
13817;DHT22;6979;52.116;5.286;2024-02-15T00:12:08;16.20;99.90
13817;DHT22;6979;52.116;5.286;2024-02-15T00:14:38;16.20;99.90
13817;DHT22;6979;52.116;5.286;2024-02-15T00:17:05;16.20;99.90
13817;DHT22;6979;52.116;5.286;2024-02-15T00:19:34;16.30;99.90
13817;DHT22;6979;52.116;5.286;2024-02-15T00:22:06;16.30;99.90
13817;DHT22;6979;52.116;5.286;2024-02-15T00:24:32;16.30;99.90
13817;DHT22;6979;52.116;5.286;2024-02-15T00:26:59;16.20;99.90
13817;DHT22;6979;52.116;5.286;2024-02-15T00:29:26;16.20;99.90
13817;DHT22;6979;52.116;5.286;2024-02-15T00:31:54;16.20;99.90
13817;DHT22;6979;52.116;5.286;2024-02-15T00:34:21;16.20;99.90
13817;DHT22;6979;52.116;5.286;2024-02-15T00:36:53;16.20;99.90
13817;DHT22;6979;52.116;5.286;2024-02-15T00:39:23;16.20;99.90
13817;DHT22;6979;52.116;5.286;2024-02-15T00:41:50;16.20;99.90
13817;DHT22;6979;52.116;5.286;2024-02-15T00:44:17;16.20;99.90
13817;DHT22;6979;52.116;5.286;2024-02-15T00:46:44;16.20;99.90
13817;DHT22;6979;52.116;5.286;2024-02-15T00:49:12;16.20;99.90
13817;DHT22;6979;52.116;5.286;2024-02-15T00:51:39;16.20;99.90
13817;DHT22;6979;52.116;5.286;2024-02-15T00:54:05;16.20;99.90
13817;DHT22;6979;52.116;5.286;2024-02-15T00:56:34;16.20;99.90
13817;DHT22;6979;52.116;5.286;2024-02-15T00:59:00;16.20;99.90
13817;DHT22;6979;52.116;5.286;2024-02-15T01:01:29;16.20;99.90
13817;DHT22;6979;52.116;5.286;2024-02-15T01:03:56;16.20;99.90
13817;DHT22;6979;52.116;5.286;2024-02-15T01:06:23;16.20;99.90
13817;DHT22;6979;52.116;5.286;2024-02-15T01:08:49;16.20;99.90
13817;DHT22;6979;52.116;5.286;2024-02-15T01:11:17;16.20;99.90
13817;DHT22;6979;52.116;5.286;2024-02-15T01:13:45;16.20;99.90
13817;DHT22;6979;52.116;5.286;2024-02-15T01:16:12;16.20;99.90
13817;DHT22;6979;52.116;5.286;2024-02-15T01:18:39;16.20;99.90
13817;DHT22;6979;52.116;5.286;2024-02-15T01:21:05;16.20;99.90
13817;DHT22;6979;52.116;5.286;2024-02-15T01:23:32;16.10;99.90
13817;DHT22;6979;52.116;5.286;2024-02-15T01:26:00;16.10;99.90
13817;DHT22;6979;52.116;5.286;2024-02-15T01:28:28;16.10;99.90
13817;DHT22;6979;52.116;5.286;2024-02-15T01:30:56;16.10;99.90
13817;DHT22;6979;52.116;5.286;2024-02-15T01:33:23;16.10;99.90
13817;DHT22;6979;52.116;5.286;2024-02-15T01:35:50;16.10;99.90
13817;DHT22;6979;52.116;5.286;2024-02-15T01:38:16;16.10;99.90
13817;DHT22;6979;52.116;5.286;2024-02-15T01:40:46;16.10;99.90
13817;DHT22;6979;52.116;5.286;2024-02-15T01:43:14;16.10;99.90
13817;DHT22;6979;52.116;5.286;2024-02-15T01:45:41;16.10;99.90
13817;DHT22;6979;52.116;5.286;2024-02-15T01:48:11;16.10;99.90
13817;DHT22;6979;52.116;5.286;2024-02-15T01:50:38;16.10;99.90
13817;DHT22;6979;52.116;5.286;2024-02-15T01:53:07;16.10;99.90
13817;DHT22;6979;52.116;5.286;2024-02-15T01:55:35;16.10;99.90
13817;DHT22;6979;52.116;5.286;2024-02-15T01:58:03;16.10;99.90
13817;DHT22;6979;52.116;5.286;2024-02-15T02:00:31;16.10;99.90
13817;DHT22;6979;52.116;5.286;2024-02-15T02:02:58;16.10;99.90
13817;DHT22;6979;52.116;5.286;2024-02-15T02:05:30;16.20;99.90
13817;DHT22;6979;52.116;5.286;2024-02-15T02:07:57;16.10;99.90
13817;DHT22;6979;52.116;5.286;2024-02-15T02:10:24;16.10;99.90
13817;DHT22;6979;52.116;5.286;2024-02-15T02:12:54;16.10;99.90
13817;DHT22;6979;52.116;5.286;2024-02-15T02:15:21;16.10;99.90
13817;DHT22;6979;52.116;5.286;2024-02-15T02:17:51;16.20;99.90
13817;DHT22;6979;52.116;5.286;2024-02-15T02:20:20;16.20;99.90
13817;DHT22;6979;52.116;5.286;2024-02-15T02:22:50;16.10;99.90
13817;DHT22;6979;52.116;5.286;2024-02-15T02:25:23;16.20;99.90
13817;DHT22;6979;52.116;5.286;2024-02-15T02:27:53;16.10;99.90
13817;DHT22;6979;52.116;5.286;2024-02-15T02:30:21;16.10;99.90
13817;DHT22;6979;52.116;5.286;2024-02-15T02:32:48;16.10;99.90
13817;DHT22;6979;52.116;5.286;2024-02-15T02:35:15;16.10;99.90
13817;DHT22;6979;52.116;5.286;2024-02-15T02:37:42;16.10;99.90
13817;DHT22;6979;52.116;5.286;2024-02-15T02:40:11;16.10;99.90
13817;DHT22;6979;52.116;5.286;2024-02-15T02:42:48;16.10;99.90
13817;DHT22;6979;52.116;5.286;2024-02-15T02:45:17;16.10;99.90
13817;DHT22;6979;52.116;5.286;2024-02-15T02:47:45;16.10;99.90
13817;DHT22;6979;52.116;5.286;2024-02-15T02:50:13;16.10;99.90
13817;DHT22;6979;52.116;5.286;2024-02-15T02:52:40;16.00;99.90
13817;DHT22;6979;52.116;5.286;2024-02-15T02:55:07;16.10;99.90
13817;DHT22;6979;52.116;5.286;2024-02-15T02:57:34;16.10;99.90
13817;DHT22;6979;52.116;5.286;2024-02-15T03:00:09;16.10;99.90
13817;DHT22;6979;52.116;5.286;2024-02-15T03:02:38;16.00;99.90
13817;DHT22;6979;52.116;5.286;2024-02-15T03:05:06;16.00;99.90
13817;DHT22;6979;52.116;5.286;2024-02-15T03:07:36;16.00;99.90
13817;DHT22;6979;52.116;5.286;2024-02-15T03:10:04;16.00;99.90
13817;DHT22;6979;52.116;5.286;2024-02-15T03:12:33;16.10;99.90
13817;DHT22;6979;52.116;5.286;2024-02-15T03:15:01;16.00;99.90
13817;DHT22;6979;52.116;5.286;2024-02-15T03:17:32;16.10;99.90
13817;DHT22;6979;52.116;5.286;2024-02-15T03:19:59;16.10;99.90
13817;DHT22;6979;52.116;5.286;2024-02-15T03:22:28;16.10;99.90
13817;DHT22;6979;52.116;5.286;2024-02-15T03:24:55;16.10;99.90
13817;DHT22;6979;52.116;5.286;2024-02-15T03:27:22;16.00;99.90
13817;DHT22;6979;52.116;5.286;2024-02-15T03:29:52;16.00;99.90
13817;DHT22;6979;52.116;5.286;2024-02-15T03:32:22;16.00;99.90
13817;DHT22;6979;52.116;5.286;2024-02-15T03:34:50;16.00;99.90
13817;DHT22;6979;52.116;5.286;2024-02-15T03:37:17;16.00;99.90
13817;DHT22;6979;52.116;5.286;2024-02-15T03:39:46;16.00;99.90
13817;DHT22;6979;52.116;5.286;2024-02-15T03:42:13;16.00;99.90
13817;DHT22;6979;52.116;5.286;2024-02-15T03:44:40;16.00;99.90
13817;DHT22;6979;52.116;5.286;2024-02-15T03:47:07;16.00;99.90
13817;DHT22;6979;52.116;5.286;2024-02-15T03:49:34;16.00;99.90
13817;DHT22;6979;52.116;5.286;2024-02-15T03:52:03;16.00;99.90
13817;DHT22;6979;52.116;5.286;2024-02-15T03:54:31;16.00;99.90
13817;DHT22;6979;52.116;5.286;2024-02-15T03:56:57;16.00;99.90
13817;DHT22;6979;52.116;5.286;2024-02-15T03:59:24;16.00;99.90
13817;DHT22;6979;52.116;5.286;2024-02-15T04:01:52;16.00;99.90
13817;DHT22;6979;52.116;5.286;2024-02-15T04:04:19;16.00;99.90
13817;DHT22;6979;52.116;5.286;2024-02-15T04:06:47;16.00;99.90
13817;DHT22;6979;52.116;5.286;2024-02-15T04:09:18;16.00;99.90
13817;DHT22;6979;52.116;5.286;2024-02-15T04:11:47;16.00;99.90
13817;DHT22;6979;52.116;5.286;2024-02-15T04:14:18;16.00;99.90
13817;DHT22;6979;52.116;5.286;2024-02-15T04:16:45;16.00;99.90
13817;DHT22;6979;52.116;5.286;2024-02-15T04:19:12;16.00;99.90
13817;DHT22;6979;52.116;5.286;2024-02-15T04:21:39;16.00;99.90
13817;DHT22;6979;52.116;5.286;2024-02-15T04:24:09;15.90;99.90
13817;DHT22;6979;52.116;5.286;2024-02-15T04:26:37;16.00;99.90
13817;DHT22;6979;52.116;5.286;2024-02-15T04:29:04;16.00;99.90
13817;DHT22;6979;52.116;5.286;2024-02-15T04:31:33;16.00;99.90
13817;DHT22;6979;52.116;5.286;2024-02-15T04:34:02;15.90;99.90
13817;DHT22;6979;52.116;5.286;2024-02-15T04:36:29;16.00;99.90
13817;DHT22;6979;52.116;5.286;2024-02-15T04:39:00;15.90;99.90
13817;DHT22;6979;52.116;5.286;2024-02-15T04:41:30;16.00;99.90
13817;DHT22;6979;52.116;5.286;2024-02-15T04:43:59;15.90;99.90
13817;DHT22;6979;52.116;5.286;2024-02-15T04:46:26;15.90;99.90
13817;DHT22;6979;52.116;5.286;2024-02-15T04:48:52;15.90;99.90
13817;DHT22;6979;52.116;5.286;2024-02-15T04:51:22;15.90;99.90
13817;DHT22;6979;52.116;5.286;2024-02-15T04:53:48;15.90;99.90
13817;DHT22;6979;52.116;5.286;2024-02-15T04:56:15;15.90;99.90
13817;DHT22;6979;52.116;5.286;2024-02-15T04:58:46;15.90;99.90
13817;DHT22;6979;52.116;5.286;2024-02-15T05:01:15;15.90;99.90
13817;DHT22;6979;52.116;5.286;2024-02-15T05:03:42;15.90;99.90
13817;DHT22;6979;52.116;5.286;2024-02-15T05:06:10;15.90;99.90
13817;DHT22;6979;52.116;5.286;2024-02-15T05:08:38;15.90;99.90
13817;DHT22;6979;52.116;5.286;2024-02-15T05:11:08;15.90;99.90
13817;DHT22;6979;52.116;5.286;2024-02-15T05:13:39;15.90;99.90
13817;DHT22;6979;52.116;5.286;2024-02-15T05:16:07;15.90;99.90
13817;DHT22;6979;52.116;5.286;2024-02-15T05:18:36;15.90;99.90
13817;DHT22;6979;52.116;5.286;2024-02-15T05:21:04;15.90;99.90
13817;DHT22;6979;52.116;5.286;2024-02-15T05:23:34;15.90;99.90
13817;DHT22;6979;52.116;5.286;2024-02-15T05:26:01;15.90;99.90
13817;DHT22;6979;52.116;5.286;2024-02-15T05:28:28;15.90;99.90
13817;DHT22;6979;52.116;5.286;2024-02-15T05:31:09;15.90;99.90
13817;DHT22;6979;52.116;5.286;2024-02-15T05:33:38;15.90;99.90
13817;DHT22;6979;52.116;5.286;2024-02-15T05:36:10;15.90;99.90
13817;DHT22;6979;52.116;5.286;2024-02-15T05:38:37;15.90;99.90
13817;DHT22;6979;52.116;5.286;2024-02-15T05:41:04;15.90;99.90
13817;DHT22;6979;52.116;5.286;2024-02-15T05:43:33;15.90;99.90
13817;DHT22;6979;52.116;5.286;2024-02-15T05:46:02;15.90;99.90
13817;DHT22;6979;52.116;5.286;2024-02-15T05:48:29;15.90;99.90
13817;DHT22;6979;52.116;5.286;2024-02-15T05:50:58;15.90;99.90
13817;DHT22;6979;52.116;5.286;2024-02-15T05:53:26;15.90;99.90
13817;DHT22;6979;52.116;5.286;2024-02-15T05:55:55;15.90;99.90
13817;DHT22;6979;52.116;5.286;2024-02-15T05:58:23;15.90;99.90
13817;DHT22;6979;52.116;5.286;2024-02-15T06:00:50;15.90;99.90
13817;DHT22;6979;52.116;5.286;2024-02-15T06:03:17;15.90;99.90
13817;DHT22;6979;52.116;5.286;2024-02-15T06:05:47;15.90;99.90
13817;DHT22;6979;52.116;5.286;2024-02-15T06:08:16;16.00;99.90
13817;DHT22;6979;52.116;5.286;2024-02-15T06:10:43;16.00;99.90
13817;DHT22;6979;52.116;5.286;2024-02-15T06:13:12;16.00;99.90
13817;DHT22;6979;52.116;5.286;2024-02-15T06:15:40;16.00;99.90
13817;DHT22;6979;52.116;5.286;2024-02-15T06:18:12;16.00;99.90
13817;DHT22;6979;52.116;5.286;2024-02-15T06:20:41;16.00;99.90
13817;DHT22;6979;52.116;5.286;2024-02-15T06:23:08;16.00;99.90
13817;DHT22;6979;52.116;5.286;2024-02-15T06:25:36;16.00;99.90
13817;DHT22;6979;52.116;5.286;2024-02-15T06:28:04;16.00;99.90
13817;DHT22;6979;52.116;5.286;2024-02-15T06:30:39;16.00;99.90
13817;DHT22;6979;52.116;5.286;2024-02-15T06:33:23;16.00;99.90
13817;DHT22;6979;52.116;5.286;2024-02-15T06:36:08;16.00;99.90
13817;DHT22;6979;52.116;5.286;2024-02-15T06:38:53;16.00;99.90
13817;DHT22;6979;52.116;5.286;2024-02-15T06:41:39;16.00;99.90
13817;DHT22;6979;52.116;5.286;2024-02-15T06:44:05;16.00;99.90
13817;DHT22;6979;52.116;5.286;2024-02-15T06:46:33;16.00;99.90
13817;DHT22;6979;52.116;5.286;2024-02-15T06:49:00;16.00;99.90
13817;DHT22;6979;52.116;5.286;2024-02-15T06:51:27;16.00;99.90
13817;DHT22;6979;52.116;5.286;2024-02-15T06:53:54;16.00;99.90
13817;DHT22;6979;52.116;5.286;2024-02-15T06:56:21;16.00;99.90
13817;DHT22;6979;52.116;5.286;2024-02-15T06:58:50;16.00;99.90
13817;DHT22;6979;52.116;5.286;2024-02-15T07:01:17;15.90;99.90
13817;DHT22;6979;52.116;5.286;2024-02-15T07:03:44;15.90;99.90
13817;DHT22;6979;52.116;5.286;2024-02-15T07:06:13;16.00;99.90
13817;DHT22;6979;52.116;5.286;2024-02-15T07:08:40;16.00;99.90
13817;DHT22;6979;52.116;5.286;2024-02-15T07:11:07;16.00;99.90
13817;DHT22;6979;52.116;5.286;2024-02-15T07:13:35;16.00;99.90
13817;DHT22;6979;52.116;5.286;2024-02-15T07:16:06;16.00;99.90
13817;DHT22;6979;52.116;5.286;2024-02-15T07:18:34;16.00;99.90
13817;DHT22;6979;52.116;5.286;2024-02-15T07:21:00;16.00;99.90
13817;DHT22;6979;52.116;5.286;2024-02-15T07:23:29;16.00;99.90
13817;DHT22;6979;52.116;5.286;2024-02-15T07:25:56;16.00;99.90
13817;DHT22;6979;52.116;5.286;2024-02-15T07:28:23;16.00;99.90
13817;DHT22;6979;52.116;5.286;2024-02-15T07:30:52;16.00;99.90
13817;DHT22;6979;52.116;5.286;2024-02-15T07:33:21;16.00;99.90
13817;DHT22;6979;52.116;5.286;2024-02-15T07:35:49;16.00;99.90
13817;DHT22;6979;52.116;5.286;2024-02-15T07:38:16;16.00;99.90
13817;DHT22;6979;52.116;5.286;2024-02-15T07:40:43;16.00;99.90
13817;DHT22;6979;52.116;5.286;2024-02-15T07:43:10;16.00;99.90
13817;DHT22;6979;52.116;5.286;2024-02-15T07:45:40;16.00;99.90
13817;DHT22;6979;52.116;5.286;2024-02-15T07:48:07;16.00;99.90
13817;DHT22;6979;52.116;5.286;2024-02-15T07:50:36;16.00;99.90
13817;DHT22;6979;52.116;5.286;2024-02-15T07:53:03;16.00;99.90
13817;DHT22;6979;52.116;5.286;2024-02-15T07:55:32;16.00;99.90
13817;DHT22;6979;52.116;5.286;2024-02-15T07:57:59;16.00;99.90
13817;DHT22;6979;52.116;5.286;2024-02-15T08:00:28;16.00;99.90
13817;DHT22;6979;52.116;5.286;2024-02-15T08:02:55;16.00;99.90
13817;DHT22;6979;52.116;5.286;2024-02-15T08:05:26;16.00;99.90
13817;DHT22;6979;52.116;5.286;2024-02-15T08:07:54;16.00;99.90
13817;DHT22;6979;52.116;5.286;2024-02-15T08:10:23;15.90;99.90
13817;DHT22;6979;52.116;5.286;2024-02-15T08:12:50;15.90;99.90
13817;DHT22;6979;52.116;5.286;2024-02-15T08:15:27;16.00;99.90
13817;DHT22;6979;52.116;5.286;2024-02-15T08:17:59;16.00;99.90
13817;DHT22;6979;52.116;5.286;2024-02-15T08:20:30;16.00;99.90
13817;DHT22;6979;52.116;5.286;2024-02-15T08:23:00;16.00;99.90
13817;DHT22;6979;52.116;5.286;2024-02-15T08:25:27;16.00;99.90
13817;DHT22;6979;52.116;5.286;2024-02-15T08:27:54;15.90;99.90
13817;DHT22;6979;52.116;5.286;2024-02-15T08:30:21;16.00;99.90
13817;DHT22;6979;52.116;5.286;2024-02-15T08:32:48;16.00;99.90
13817;DHT22;6979;52.116;5.286;2024-02-15T08:35:15;15.90;99.90
13817;DHT22;6979;52.116;5.286;2024-02-15T08:37:42;16.00;99.90
13817;DHT22;6979;52.116;5.286;2024-02-15T08:40:14;16.00;99.90
13817;DHT22;6979;52.116;5.286;2024-02-15T08:42:44;15.90;99.90
13817;DHT22;6979;52.116;5.286;2024-02-15T08:45:14;16.00;99.90
13817;DHT22;6979;52.116;5.286;2024-02-15T08:47:47;16.00;99.90
13817;DHT22;6979;52.116;5.286;2024-02-15T08:50:15;16.00;99.90
13817;DHT22;6979;52.116;5.286;2024-02-15T08:52:42;16.00;99.90
13817;DHT22;6979;52.116;5.286;2024-02-15T08:55:10;16.00;99.90
13817;DHT22;6979;52.116;5.286;2024-02-15T08:57:41;16.00;99.90
13817;DHT22;6979;52.116;5.286;2024-02-15T09:00:10;16.00;99.90
13817;DHT22;6979;52.116;5.286;2024-02-15T09:02:39;16.00;99.90
13817;DHT22;6979;52.116;5.286;2024-02-15T09:05:07;16.00;99.90
13817;DHT22;6979;52.116;5.286;2024-02-15T09:07:46;16.00;99.90
13817;DHT22;6979;52.116;5.286;2024-02-15T09:10:20;16.00;99.90
13817;DHT22;6979;52.116;5.286;2024-02-15T09:12:49;16.00;99.90
13817;DHT22;6979;52.116;5.286;2024-02-15T09:15:16;16.00;99.90
13817;DHT22;6979;52.116;5.286;2024-02-15T09:17:45;16.00;99.90
13817;DHT22;6979;52.116;5.286;2024-02-15T09:20:13;16.00;99.90
13817;DHT22;6979;52.116;5.286;2024-02-15T09:22:41;16.00;99.90
13817;DHT22;6979;52.116;5.286;2024-02-15T09:25:09;16.00;99.90
13817;DHT22;6979;52.116;5.286;2024-02-15T09:27:36;16.00;99.90
13817;DHT22;6979;52.116;5.286;2024-02-15T09:30:06;16.00;99.90
13817;DHT22;6979;52.116;5.286;2024-02-15T09:32:38;16.00;99.90
13817;DHT22;6979;52.116;5.286;2024-02-15T09:35:06;16.00;99.90
13817;DHT22;6979;52.116;5.286;2024-02-15T09:37:33;16.00;99.90
13817;DHT22;6979;52.116;5.286;2024-02-15T09:40:00;16.00;99.90
13817;DHT22;6979;52.116;5.286;2024-02-15T09:42:32;16.00;99.90
13817;DHT22;6979;52.116;5.286;2024-02-15T09:45:00;16.10;99.90
13817;DHT22;6979;52.116;5.286;2024-02-15T09:47:34;16.10;99.90
13817;DHT22;6979;52.116;5.286;2024-02-15T09:50:02;16.10;99.90
13817;DHT22;6979;52.116;5.286;2024-02-15T09:52:31;16.10;99.90
13817;DHT22;6979;52.116;5.286;2024-02-15T09:55:02;16.10;99.90
13817;DHT22;6979;52.116;5.286;2024-02-15T09:57:30;16.10;99.90
13817;DHT22;6979;52.116;5.286;2024-02-15T09:59:58;16.20;99.90
13817;DHT22;6979;52.116;5.286;2024-02-15T10:02:27;16.20;99.90
13817;DHT22;6979;52.116;5.286;2024-02-15T10:04:58;16.20;99.90
13817;DHT22;6979;52.116;5.286;2024-02-15T10:07:26;16.20;99.90
13817;DHT22;6979;52.116;5.286;2024-02-15T10:09:53;16.20;99.90
13817;DHT22;6979;52.116;5.286;2024-02-15T10:12:20;16.30;99.90
13817;DHT22;6979;52.116;5.286;2024-02-15T10:14:49;16.30;99.90
13817;DHT22;6979;52.116;5.286;2024-02-15T10:17:19;16.30;99.90
13817;DHT22;6979;52.116;5.286;2024-02-15T10:20:04;16.40;99.90
13817;DHT22;6979;52.116;5.286;2024-02-15T10:22:31;16.30;99.90
13817;DHT22;6979;52.116;5.286;2024-02-15T10:25:11;16.40;99.90
13817;DHT22;6979;52.116;5.286;2024-02-15T10:27:39;16.40;99.90
13817;DHT22;6979;52.116;5.286;2024-02-15T10:30:16;16.50;99.90
13817;DHT22;6979;52.116;5.286;2024-02-15T10:32:43;16.40;99.90
13817;DHT22;6979;52.116;5.286;2024-02-15T10:35:19;16.50;99.90
13817;DHT22;6979;52.116;5.286;2024-02-15T10:37:47;16.50;99.90
13817;DHT22;6979;52.116;5.286;2024-02-15T10:40:18;16.50;99.90
13817;DHT22;6979;52.116;5.286;2024-02-15T10:42:47;16.60;99.90
13817;DHT22;6979;52.116;5.286;2024-02-15T10:45:15;16.60;99.90
13817;DHT22;6979;52.116;5.286;2024-02-15T10:47:44;16.60;99.90
13817;DHT22;6979;52.116;5.286;2024-02-15T10:50:14;16.60;99.90
13817;DHT22;6979;52.116;5.286;2024-02-15T10:52:48;16.60;99.90
13817;DHT22;6979;52.116;5.286;2024-02-15T10:55:29;16.60;99.90
13817;DHT22;6979;52.116;5.286;2024-02-15T10:58:01;16.70;99.90
13817;DHT22;6979;52.116;5.286;2024-02-15T11:00:31;16.70;99.90
13817;DHT22;6979;52.116;5.286;2024-02-15T11:03:01;16.70;99.90
13817;DHT22;6979;52.116;5.286;2024-02-15T11:05:33;16.80;99.90
13817;DHT22;6979;52.116;5.286;2024-02-15T11:08:07;16.80;99.90
13817;DHT22;6979;52.116;5.286;2024-02-15T11:10:34;16.80;99.90
13817;DHT22;6979;52.116;5.286;2024-02-15T11:13:02;16.80;99.90
13817;DHT22;6979;52.116;5.286;2024-02-15T11:15:43;16.90;99.90
13817;DHT22;6979;52.116;5.286;2024-02-15T11:18:42;16.90;99.90
13817;DHT22;6979;52.116;5.286;2024-02-15T11:21:11;16.90;99.90
13817;DHT22;6979;52.116;5.286;2024-02-15T11:23:38;17.00;99.90
13817;DHT22;6979;52.116;5.286;2024-02-15T11:26:16;17.00;99.90
13817;DHT22;6979;52.116;5.286;2024-02-15T11:28:55;17.00;99.90
13817;DHT22;6979;52.116;5.286;2024-02-15T11:31:52;17.00;99.90
13817;DHT22;6979;52.116;5.286;2024-02-15T11:34:41;17.00;99.90
13817;DHT22;6979;52.116;5.286;2024-02-15T11:37:10;17.00;99.90
13817;DHT22;6979;52.116;5.286;2024-02-15T11:39:58;17.00;99.90
13817;DHT22;6979;52.116;5.286;2024-02-15T11:42:29;17.10;99.90
13817;DHT22;6979;52.116;5.286;2024-02-15T11:45:14;17.10;99.90
13817;DHT22;6979;52.116;5.286;2024-02-15T11:47:47;17.10;99.90
13817;DHT22;6979;52.116;5.286;2024-02-15T11:50:16;17.10;99.90
13817;DHT22;6979;52.116;5.286;2024-02-15T11:52:44;17.10;99.90
13817;DHT22;6979;52.116;5.286;2024-02-15T11:55:17;17.10;99.90
13817;DHT22;6979;52.116;5.286;2024-02-15T11:57:54;17.20;99.90
13817;DHT22;6979;52.116;5.286;2024-02-15T12:00:28;17.20;99.90
13817;DHT22;6979;52.116;5.286;2024-02-15T12:03:15;17.20;99.90
13817;DHT22;6979;52.116;5.286;2024-02-15T12:05:59;17.20;99.90
13817;DHT22;6979;52.116;5.286;2024-02-15T12:08:46;17.20;99.90
13817;DHT22;6979;52.116;5.286;2024-02-15T12:11:31;17.20;99.90
13817;DHT22;6979;52.116;5.286;2024-02-15T12:14:18;17.20;99.90
13817;DHT22;6979;52.116;5.286;2024-02-15T12:17:08;17.20;99.90
13817;DHT22;6979;52.116;5.286;2024-02-15T12:19:54;17.30;99.90
13817;DHT22;6979;52.116;5.286;2024-02-15T12:22:25;17.30;99.90
13817;DHT22;6979;52.116;5.286;2024-02-15T12:24:58;17.30;99.90
13817;DHT22;6979;52.116;5.286;2024-02-15T12:27:25;17.40;99.90
13817;DHT22;6979;52.116;5.286;2024-02-15T12:29:56;17.40;99.90
13817;DHT22;6979;52.116;5.286;2024-02-15T12:32:24;17.50;99.90
13817;DHT22;6979;52.116;5.286;2024-02-15T12:34:51;17.50;99.90
13817;DHT22;6979;52.116;5.286;2024-02-15T12:37:19;17.60;99.90
13817;DHT22;6979;52.116;5.286;2024-02-15T12:39:47;17.60;99.90
13817;DHT22;6979;52.116;5.286;2024-02-15T12:42:19;17.70;99.90
13817;DHT22;6979;52.116;5.286;2024-02-15T12:44:48;17.70;99.90
13817;DHT22;6979;52.116;5.286;2024-02-15T12:47:19;17.80;99.90
13817;DHT22;6979;52.116;5.286;2024-02-15T12:49:47;17.80;99.90
13817;DHT22;6979;52.116;5.286;2024-02-15T12:52:36;17.90;99.90
13817;DHT22;6979;52.116;5.286;2024-02-15T12:55:07;18.00;99.90
13817;DHT22;6979;52.116;5.286;2024-02-15T12:57:36;18.10;99.90
13817;DHT22;6979;52.116;5.286;2024-02-15T13:00:07;18.20;99.90
13817;DHT22;6979;52.116;5.286;2024-02-15T13:02:39;18.30;99.90
13817;DHT22;6979;52.116;5.286;2024-02-15T13:05:07;18.40;99.90
13817;DHT22;6979;52.116;5.286;2024-02-15T13:07:37;18.50;99.90
13817;DHT22;6979;52.116;5.286;2024-02-15T13:10:08;18.60;99.90
13817;DHT22;6979;52.116;5.286;2024-02-15T13:12:37;18.70;99.90
13817;DHT22;6979;52.116;5.286;2024-02-15T13:15:05;18.70;99.90
13817;DHT22;6979;52.116;5.286;2024-02-15T13:17:37;18.80;99.90
13817;DHT22;6979;52.116;5.286;2024-02-15T13:20:05;18.80;99.90
13817;DHT22;6979;52.116;5.286;2024-02-15T13:22:37;18.90;99.90
13817;DHT22;6979;52.116;5.286;2024-02-15T13:25:05;18.90;99.90
13817;DHT22;6979;52.116;5.286;2024-02-15T13:27:34;19.00;99.90
13817;DHT22;6979;52.116;5.286;2024-02-15T13:30:04;19.10;99.90
13817;DHT22;6979;52.116;5.286;2024-02-15T13:32:36;19.20;99.90
13817;DHT22;6979;52.116;5.286;2024-02-15T13:35:05;19.20;99.90
13817;DHT22;6979;52.116;5.286;2024-02-15T13:37:40;19.30;99.90
13817;DHT22;6979;52.116;5.286;2024-02-15T13:40:09;19.30;99.90
13817;DHT22;6979;52.116;5.286;2024-02-15T13:42:41;19.40;99.90
13817;DHT22;6979;52.116;5.286;2024-02-15T13:45:13;19.40;99.90
13817;DHT22;6979;52.116;5.286;2024-02-15T13:47:44;19.40;99.90
13817;DHT22;6979;52.116;5.286;2024-02-15T13:50:11;19.50;99.90
13817;DHT22;6979;52.116;5.286;2024-02-15T13:52:40;19.60;99.90
13817;DHT22;6979;52.116;5.286;2024-02-15T13:55:09;19.70;99.90
13817;DHT22;6979;52.116;5.286;2024-02-15T13:57:37;19.70;99.90
13817;DHT22;6979;52.116;5.286;2024-02-15T14:00:05;19.80;99.90
13817;DHT22;6979;52.116;5.286;2024-02-15T14:02:40;19.90;99.90
13817;DHT22;6979;52.116;5.286;2024-02-15T14:05:07;20.00;99.90
13817;DHT22;6979;52.116;5.286;2024-02-15T14:07:34;20.10;99.90
13817;DHT22;6979;52.116;5.286;2024-02-15T14:10:09;20.10;99.90
13817;DHT22;6979;52.116;5.286;2024-02-15T14:12:38;20.20;99.90
13817;DHT22;6979;52.116;5.286;2024-02-15T14:15:06;20.30;99.90
13817;DHT22;6979;52.116;5.286;2024-02-15T14:17:33;20.40;99.90
13817;DHT22;6979;52.116;5.286;2024-02-15T14:20:03;20.40;99.90
13817;DHT22;6979;52.116;5.286;2024-02-15T14:22:34;20.50;99.90
13817;DHT22;6979;52.116;5.286;2024-02-15T14:25:01;20.60;99.90
13817;DHT22;6979;52.116;5.286;2024-02-15T14:27:32;20.60;99.90
13817;DHT22;6979;52.116;5.286;2024-02-15T14:30:02;20.60;99.90
13817;DHT22;6979;52.116;5.286;2024-02-15T14:32:46;20.50;99.90
13817;DHT22;6979;52.116;5.286;2024-02-15T14:35:36;20.40;99.90
13817;DHT22;6979;52.116;5.286;2024-02-15T14:38:05;20.30;99.90
13817;DHT22;6979;52.116;5.286;2024-02-15T14:40:34;20.30;99.90
13817;DHT22;6979;52.116;5.286;2024-02-15T14:43:01;20.10;99.90
13817;DHT22;6979;52.116;5.286;2024-02-15T14:45:30;20.10;99.90
13817;DHT22;6979;52.116;5.286;2024-02-15T14:47:58;20.00;99.90
13817;DHT22;6979;52.116;5.286;2024-02-15T14:50:25;20.00;99.90
13817;DHT22;6979;52.116;5.286;2024-02-15T14:52:53;19.90;99.90
13817;DHT22;6979;52.116;5.286;2024-02-15T14:55:20;19.90;99.90
13817;DHT22;6979;52.116;5.286;2024-02-15T14:57:48;19.80;99.90
13817;DHT22;6979;52.116;5.286;2024-02-15T15:00:15;19.80;99.90
13817;DHT22;6979;52.116;5.286;2024-02-15T15:02:45;19.70;99.90
13817;DHT22;6979;52.116;5.286;2024-02-15T15:05:13;19.70;99.90
13817;DHT22;6979;52.116;5.286;2024-02-15T15:07:59;19.70;99.90
13817;DHT22;6979;52.116;5.286;2024-02-15T15:10:45;19.60;99.90
13817;DHT22;6979;52.116;5.286;2024-02-15T15:13:30;19.60;99.90
13817;DHT22;6979;52.116;5.286;2024-02-15T15:15:57;19.60;99.90
13817;DHT22;6979;52.116;5.286;2024-02-15T15:18:24;19.50;99.90
13817;DHT22;6979;52.116;5.286;2024-02-15T15:20:51;19.50;99.90
13817;DHT22;6979;52.116;5.286;2024-02-15T15:23:20;19.50;99.90
13817;DHT22;6979;52.116;5.286;2024-02-15T15:25:48;19.40;99.90
13817;DHT22;6979;52.116;5.286;2024-02-15T15:28:14;19.40;99.90
13817;DHT22;6979;52.116;5.286;2024-02-15T15:30:41;19.40;99.90
13817;DHT22;6979;52.116;5.286;2024-02-15T15:33:16;19.40;99.90
13817;DHT22;6979;52.116;5.286;2024-02-15T15:35:47;19.30;99.90
13817;DHT22;6979;52.116;5.286;2024-02-15T15:38:15;19.30;99.90
13817;DHT22;6979;52.116;5.286;2024-02-15T15:40:44;19.30;99.90
13817;DHT22;6979;52.116;5.286;2024-02-15T15:43:11;19.20;99.90
13817;DHT22;6979;52.116;5.286;2024-02-15T15:45:39;19.20;99.90
13817;DHT22;6979;52.116;5.286;2024-02-15T15:48:06;19.20;99.90
13817;DHT22;6979;52.116;5.286;2024-02-15T15:50:33;19.20;99.90
13817;DHT22;6979;52.116;5.286;2024-02-15T15:53:04;19.10;99.90
13817;DHT22;6979;52.116;5.286;2024-02-15T15:55:31;19.10;99.90
13817;DHT22;6979;52.116;5.286;2024-02-15T15:58:00;19.10;99.90
13817;DHT22;6979;52.116;5.286;2024-02-15T16:00:27;19.00;99.90
13817;DHT22;6979;52.116;5.286;2024-02-15T16:02:54;19.00;99.90